DW7262 La Rochelle FR current weather conditions

sailwx.info

Wind from 101 at 8 knots gusting 14

Air temperature 12.2° C
Dewpoint 10.3° C

Last reported at 2014-Nov-27 21:04 UTC.
Time now 2014-Nov-28 04:14 UTC

Location: N 45°57' W 001°22'.
View on Google Maps.

See reports from other nearby stations

  
Tides and Currents Weather Stations Pressure Air Temp Water Temp Dewpoint Dewpoint Depression Visibility Wind Speed Wind Dir Waves Ship Positions
date/time (UTC)wind fromknots sea level pressurealtimeterstation pressurevisibilityair tempwater tempwave heightnotes
2014-Nov-27 21:04 101 8 gusting 14 12.2
2014-Nov-27 20:55 101 7 gusting 12 12.2
2014-Nov-27 17:14 105 6 gusting 14 11.1
2014-Nov-27 17:04 115 6 gusting 14 11.1
2014-Nov-27 16:41 101 7 gusting 16 11.1
2014-Nov-27 16:31 089 7 gusting 16 11.1
2014-Nov-27 16:12 101 7 gusting 14 11.1
2014-Nov-27 15:38 086 7 gusting 18 11.1
2014-Nov-27 15:28 094 6 gusting 13 11.1
2014-Nov-27 15:18 135 7 gusting 17 11.1
2014-Nov-27 14:45 095 10 gusting 19 12.2
2014-Nov-27 14:13 115 8 gusting 15 13.3
2014-Nov-27 14:03 121 8 gusting 15 13.9
2014-Nov-27 13:53 101 8 gusting 15 13.9
2014-Nov-27 13:31 119 7 gusting 14 13.9
2014-Nov-27 13:10 106 6 gusting 12 13.3
2014-Nov-27 13:00 134 6 gusting 13 13.3
2014-Nov-27 12:49 093 6 gusting 13 13.3
2014-Nov-27 12:17 121 7 gusting 13 12.8
2014-Nov-27 11:33 109 6 gusting 13 11.7
2014-Nov-27 08:20 066 0 gusting 2 9.4
2014-Nov-27 08:10 094 8.9
2014-Nov-27 08:00 083 0 gusting 2 8.9
2014-Nov-27 07:38 079 0 gusting 2 8.3
2014-Nov-27 07:03 095 1 gusting 2 8.9
2014-Nov-26 20:52 013 7.8
2014-Nov-26 20:42 013 7.8
2014-Nov-26 20:32 013 8.3
2014-Nov-26 18:55 013 10.6
2014-Nov-26 18:46 013 11.1
2014-Nov-26 18:25 013 11.7
2014-Nov-26 18:15 013 11.7
2014-Nov-26 18:05 013 12.2
2014-Nov-26 17:43 302 12.2
2014-Nov-26 17:33 302 12.2
2014-Nov-26 17:14 302 12.8
2014-Nov-26 17:03 302 12.8
2014-Nov-26 16:54 302 13.3
2014-Nov-26 16:43 302 13.3
2014-Nov-26 16:10 295 13.3
2014-Nov-26 16:00 121 13.9
2014-Nov-26 15:38 156 13.9
2014-Nov-26 15:15 157 14.4
2014-Nov-26 14:55 159 13.9
2014-Nov-26 14:45 160 13.9
2014-Nov-26 14:24 174 13.3
2014-Nov-26 14:15 198 13.3
2014-Nov-26 13:31 194 1 gusting 5 13.9
2014-Nov-26 13:00 201 2 gusting 6 13.9
2014-Nov-26 12:50 248 1 gusting 4 14.4
2014-Nov-26 12:40 288 1 gusting 5 15.0
2014-Nov-26 12:29 224 1 gusting 4 15.0
2014-Nov-26 12:19 257 1 gusting 5 15.0
2014-Nov-26 11:58 187 1 gusting 4 15.0
2014-Nov-26 11:49 217 1 gusting 3 15.0
2014-Nov-26 11:14 242 2 gusting 6 15.6
2014-Nov-26 11:04 203 3 gusting 6 15.6
2014-Nov-26 10:54 214 2 gusting 7 15.0
2014-Nov-26 10:45 243 3 gusting 7 15.6
2014-Nov-26 10:26 204 3 gusting 6 15.6
2014-Nov-26 10:16 238 1 gusting 4 15.6
2014-Nov-26 09:18 191 2 gusting 7 14.4
2014-Nov-26 08:46 203 0 gusting 4 14.4
2014-Nov-26 08:25 224 1 gusting 4 13.9
2014-Nov-26 08:15 233 0 gusting 3 13.9
2014-Nov-26 07:55 206 1 gusting 6 13.9
2014-Nov-26 07:33 212 0 gusting 4 13.9